Terminal Aerodrome Forecast
Issued by NWS Grand Forks, ND

Home | Current Version | Previous Version | Graphics & Text | Print | Product List | Glossary On
Versions: 1 2 3 4 5 6 7 8 9 10 11 12 13 14
959
FTUS43 KFGF 221123 AAA
TAFFAR
TAF AMD
KFAR 221123Z 2211/2312 VRB06KT P6SM SCT200
     FM221500 30010KT P6SM FEW150
     FM221800 31015G23KT P6SM FEW200
     FM230200 34010KT P6SM FEW200=

USA.gov is the U.S. government's official web portal to all federal, state and local government web resources and services.